sensor_id;sensor_type;location;lat;lon;timestamp;pressure;altitude;pressure_sealevel;temperature;humidity
37860;BME280;23698;52.014;5.190;2023-03-31T00:00:12;100170.28;;;10.43;100.00
37860;BME280;23698;52.014;5.190;2023-03-31T00:02:59;100161.75;;;10.39;100.00
37860;BME280;23698;52.014;5.190;2023-03-31T00:05:48;100157.59;;;10.50;100.00
37860;BME280;23698;52.014;5.190;2023-03-31T00:08:37;100144.25;;;10.75;100.00
37860;BME280;23698;52.014;5.190;2023-03-31T00:11:24;100141.28;;;10.83;100.00
37860;BME280;23698;52.014;5.190;2023-03-31T00:14:11;100124.22;;;10.36;100.00
37860;BME280;23698;52.014;5.190;2023-03-31T00:16:57;100127.44;;;11.18;100.00
37860;BME280;23698;52.014;5.190;2023-03-31T00:19:44;100116.47;;;11.00;100.00
37860;BME280;23698;52.014;5.190;2023-03-31T00:22:35;100106.50;;;10.67;100.00
37860;BME280;23698;52.014;5.190;2023-03-31T00:25:22;100098.38;;;10.60;100.00
37860;BME280;23698;52.014;5.190;2023-03-31T00:28:08;100091.97;;;11.71;100.00
37860;BME280;23698;52.014;5.190;2023-03-31T00:30:59;100087.47;;;10.93;100.00
37860;BME280;23698;52.014;5.190;2023-03-31T00:33:45;100082.50;;;10.77;100.00
37860;BME280;23698;52.014;5.190;2023-03-31T00:36:32;100078.94;;;10.90;100.00
37860;BME280;23698;52.014;5.190;2023-03-31T00:39:22;100075.44;;;11.34;100.00
37860;BME280;23698;52.014;5.190;2023-03-31T00:42:10;100071.03;;;10.82;100.00
37860;BME280;23698;52.014;5.190;2023-03-31T00:45:21;100055.78;;;11.39;100.00
37860;BME280;23698;52.014;5.190;2023-03-31T00:48:13;100045.72;;;12.17;100.00
37860;BME280;23698;52.014;5.190;2023-03-31T00:51:04;100039.66;;;12.15;100.00
37860;BME280;23698;52.014;5.190;2023-03-31T00:53:53;100034.50;;;11.43;100.00
37860;BME280;23698;52.014;5.190;2023-03-31T00:56:44;100023.84;;;10.96;100.00
37860;BME280;23698;52.014;5.190;2023-03-31T00:59:36;100027.00;;;10.86;100.00
37860;BME280;23698;52.014;5.190;2023-03-31T01:02:24;100017.75;;;11.07;100.00
37860;BME280;23698;52.014;5.190;2023-03-31T01:05:10;100024.09;;;11.33;100.00
37860;BME280;23698;52.014;5.190;2023-03-31T01:07:58;100017.81;;;10.94;100.00
37860;BME280;23698;52.014;5.190;2023-03-31T01:10:50;100013.56;;;11.11;100.00
37860;BME280;23698;52.014;5.190;2023-03-31T01:13:40;100008.19;;;10.98;100.00
37860;BME280;23698;52.014;5.190;2023-03-31T01:16:27;100004.47;;;11.69;100.00
37860;BME280;23698;52.014;5.190;2023-03-31T01:19:20;100000.72;;;10.87;100.00
37860;BME280;23698;52.014;5.190;2023-03-31T01:25:50;99979.91;;;10.74;100.00
37860;BME280;23698;52.014;5.190;2023-03-31T01:28:46;99978.28;;;10.60;100.00
37860;BME280;23698;52.014;5.190;2023-03-31T01:31:49;99981.63;;;10.62;100.00
37860;BME280;23698;52.014;5.190;2023-03-31T01:38:58;99967.72;;;11.35;100.00
37860;BME280;23698;52.014;5.190;2023-03-31T01:41:57;99953.38;;;10.89;100.00
37860;BME280;23698;52.014;5.190;2023-03-31T01:44:54;99954.16;;;10.96;100.00
37860;BME280;23698;52.014;5.190;2023-03-31T01:47:48;99945.91;;;11.55;100.00
37860;BME280;23698;52.014;5.190;2023-03-31T01:50:44;99936.22;;;11.34;100.00
37860;BME280;23698;52.014;5.190;2023-03-31T01:53:37;99931.91;;;10.81;100.00
37860;BME280;23698;52.014;5.190;2023-03-31T01:56:30;99932.09;;;11.25;100.00
37860;BME280;23698;52.014;5.190;2023-03-31T01:59:22;99916.94;;;11.42;100.00
37860;BME280;23698;52.014;5.190;2023-03-31T02:02:15;99913.22;;;10.66;100.00
37860;BME280;23698;52.014;5.190;2023-03-31T02:05:06;99913.22;;;11.11;100.00
37860;BME280;23698;52.014;5.190;2023-03-31T02:07:56;99893.88;;;11.01;100.00
37860;BME280;23698;52.014;5.190;2023-03-31T02:10:44;99894.16;;;10.80;100.00
37860;BME280;23698;52.014;5.190;2023-03-31T02:13:33;99891.63;;;11.74;100.00
37860;BME280;23698;52.014;5.190;2023-03-31T02:16:25;99878.88;;;10.92;100.00
37860;BME280;23698;52.014;5.190;2023-03-31T02:19:14;99881.63;;;11.49;100.00
37860;BME280;23698;52.014;5.190;2023-03-31T02:22:04;99862.16;;;11.02;100.00
37860;BME280;23698;52.014;5.190;2023-03-31T02:24:53;99869.41;;;11.08;100.00
37860;BME280;23698;52.014;5.190;2023-03-31T02:27:42;99866.34;;;10.98;100.00
37860;BME280;23698;52.014;5.190;2023-03-31T02:30:33;99860.72;;;10.99;100.00
37860;BME280;23698;52.014;5.190;2023-03-31T02:33:23;99859.22;;;11.03;100.00
37860;BME280;23698;52.014;5.190;2023-03-31T02:36:10;99865.06;;;10.62;100.00
37860;BME280;23698;52.014;5.190;2023-03-31T02:38:59;99863.84;;;10.64;100.00
37860;BME280;23698;52.014;5.190;2023-03-31T02:41:47;99848.28;;;11.42;100.00
37860;BME280;23698;52.014;5.190;2023-03-31T02:44:34;99838.53;;;10.77;100.00
37860;BME280;23698;52.014;5.190;2023-03-31T02:47:20;99847.16;;;10.61;100.00
37860;BME280;23698;52.014;5.190;2023-03-31T02:50:09;99837.78;;;10.56;100.00
37860;BME280;23698;52.014;5.190;2023-03-31T02:53:02;99839.56;;;10.76;100.00
37860;BME280;23698;52.014;5.190;2023-03-31T02:56:08;99823.66;;;10.86;100.00
37860;BME280;23698;52.014;5.190;2023-03-31T02:59:10;99812.78;;;11.18;100.00
37860;BME280;23698;52.014;5.190;2023-03-31T03:02:09;99792.56;;;10.89;100.00
37860;BME280;23698;52.014;5.190;2023-03-31T03:05:16;99779.28;;;10.81;100.00
37860;BME280;23698;52.014;5.190;2023-03-31T03:08:27;99771.88;;;10.94;100.00
37860;BME280;23698;52.014;5.190;2023-03-31T03:11:21;99765.00;;;10.92;100.00
37860;BME280;23698;52.014;5.190;2023-03-31T03:14:17;99759.34;;;10.68;100.00
37860;BME280;23698;52.014;5.190;2023-03-31T03:17:10;99753.19;;;10.54;100.00
37860;BME280;23698;52.014;5.190;2023-03-31T03:19:59;99742.88;;;11.20;100.00
37860;BME280;23698;52.014;5.190;2023-03-31T03:22:48;99731.38;;;11.00;100.00
37860;BME280;23698;52.014;5.190;2023-03-31T03:25:34;99719.44;;;11.01;100.00
37860;BME280;23698;52.014;5.190;2023-03-31T03:28:20;99709.56;;;10.63;100.00
37860;BME280;23698;52.014;5.190;2023-03-31T03:31:06;99700.69;;;10.49;100.00
37860;BME280;23698;52.014;5.190;2023-03-31T03:33:53;99707.41;;;10.39;100.00
37860;BME280;23698;52.014;5.190;2023-03-31T03:36:40;99707.88;;;10.36;100.00
37860;BME280;23698;52.014;5.190;2023-03-31T03:39:28;99691.72;;;10.99;100.00
37860;BME280;23698;52.014;5.190;2023-03-31T03:42:14;99681.72;;;10.74;100.00
37860;BME280;23698;52.014;5.190;2023-03-31T03:45:02;99672.31;;;10.51;100.00
37860;BME280;23698;52.014;5.190;2023-03-31T03:47:48;99688.19;;;10.48;100.00
37860;BME280;23698;52.014;5.190;2023-03-31T03:50:36;99675.47;;;10.99;100.00
37860;BME280;23698;52.014;5.190;2023-03-31T03:53:22;99665.28;;;10.44;100.00
37860;BME280;23698;52.014;5.190;2023-03-31T03:56:10;99658.41;;;10.73;100.00
37860;BME280;23698;52.014;5.190;2023-03-31T03:58:56;99628.34;;;10.74;100.00
37860;BME280;23698;52.014;5.190;2023-03-31T04:01:42;99622.56;;;10.46;100.00
37860;BME280;23698;52.014;5.190;2023-03-31T04:04:29;99623.44;;;11.08;100.00
37860;BME280;23698;52.014;5.190;2023-03-31T04:07:15;99592.69;;;10.96;100.00
37860;BME280;23698;52.014;5.190;2023-03-31T04:10:02;99576.44;;;10.52;100.00
37860;BME280;23698;52.014;5.190;2023-03-31T04:12:50;99569.16;;;10.21;100.00
37860;BME280;23698;52.014;5.190;2023-03-31T04:15:36;99561.69;;;10.16;100.00
37860;BME280;23698;52.014;5.190;2023-03-31T04:18:22;99557.47;;;10.52;100.00
37860;BME280;23698;52.014;5.190;2023-03-31T04:21:10;99554.09;;;10.32;100.00
37860;BME280;23698;52.014;5.190;2023-03-31T04:24:00;99542.63;;;10.55;100.00
37860;BME280;23698;52.014;5.190;2023-03-31T04:26:48;99543.97;;;10.20;100.00
37860;BME280;23698;52.014;5.190;2023-03-31T04:29:36;99544.63;;;10.16;100.00
37860;BME280;23698;52.014;5.190;2023-03-31T04:32:23;99539.25;;;10.78;100.00
37860;BME280;23698;52.014;5.190;2023-03-31T04:35:09;99527.19;;;10.37;100.00
37860;BME280;23698;52.014;5.190;2023-03-31T04:37:59;99519.69;;;10.94;100.00
37860;BME280;23698;52.014;5.190;2023-03-31T04:40:48;99507.59;;;10.79;100.00
37860;BME280;23698;52.014;5.190;2023-03-31T04:43:34;99502.59;;;10.57;100.00
37860;BME280;23698;52.014;5.190;2023-03-31T04:46:22;99490.94;;;10.56;100.00
37860;BME280;23698;52.014;5.190;2023-03-31T04:49:09;99472.41;;;10.72;100.00
37860;BME280;23698;52.014;5.190;2023-03-31T04:51:55;99465.34;;;10.52;100.00
37860;BME280;23698;52.014;5.190;2023-03-31T04:54:42;99461.09;;;10.93;100.00
37860;BME280;23698;52.014;5.190;2023-03-31T04:57:28;99446.53;;;10.57;100.00
37860;BME280;23698;52.014;5.190;2023-03-31T05:00:15;99442.75;;;10.58;100.00
37860;BME280;23698;52.014;5.190;2023-03-31T05:03:03;99443.94;;;11.00;100.00
37860;BME280;23698;52.014;5.190;2023-03-31T05:05:51;99432.22;;;10.69;100.00
37860;BME280;23698;52.014;5.190;2023-03-31T05:08:37;99421.22;;;10.82;100.00
37860;BME280;23698;52.014;5.190;2023-03-31T05:11:23;99414.28;;;11.17;100.00
37860;BME280;23698;52.014;5.190;2023-03-31T05:14:10;99414.69;;;10.71;100.00
37860;BME280;23698;52.014;5.190;2023-03-31T05:16:57;99402.03;;;10.95;100.00
37860;BME280;23698;52.014;5.190;2023-03-31T05:19:45;99410.25;;;10.40;100.00
37860;BME280;23698;52.014;5.190;2023-03-31T05:22:33;99408.84;;;10.12;100.00
37860;BME280;23698;52.014;5.190;2023-03-31T05:25:19;99406.78;;;10.08;100.00
37860;BME280;23698;52.014;5.190;2023-03-31T05:28:07;99403.88;;;10.83;100.00
37860;BME280;23698;52.014;5.190;2023-03-31T05:30:57;99388.53;;;10.58;100.00
37860;BME280;23698;52.014;5.190;2023-03-31T05:33:44;99385.97;;;11.12;100.00
37860;BME280;23698;52.014;5.190;2023-03-31T05:36:31;99378.78;;;10.88;100.00
37860;BME280;23698;52.014;5.190;2023-03-31T05:39:19;99369.13;;;10.92;100.00
37860;BME280;23698;52.014;5.190;2023-03-31T05:42:05;99383.44;;;10.99;100.00
37860;BME280;23698;52.014;5.190;2023-03-31T05:44:52;99370.06;;;10.55;100.00
37860;BME280;23698;52.014;5.190;2023-03-31T05:47:39;99368.69;;;10.46;100.00
37860;BME280;23698;52.014;5.190;2023-03-31T05:50:25;99365.69;;;10.36;100.00
37860;BME280;23698;52.014;5.190;2023-03-31T05:53:13;99357.84;;;11.49;100.00
37860;BME280;23698;52.014;5.190;2023-03-31T05:56:01;99351.69;;;10.57;100.00
37860;BME280;23698;52.014;5.190;2023-03-31T05:58:48;99353.13;;;10.42;100.00
37860;BME280;23698;52.014;5.190;2023-03-31T06:01:35;99347.63;;;10.48;100.00
37860;BME280;23698;52.014;5.190;2023-03-31T06:04:21;99341.00;;;10.63;100.00
37860;BME280;23698;52.014;5.190;2023-03-31T06:07:08;99340.84;;;10.39;100.00
37860;BME280;23698;52.014;5.190;2023-03-31T06:09:57;99331.19;;;10.92;100.00
37860;BME280;23698;52.014;5.190;2023-03-31T06:12:43;99329.00;;;10.70;100.00
37860;BME280;23698;52.014;5.190;2023-03-31T06:15:29;99315.13;;;10.79;100.00
37860;BME280;23698;52.014;5.190;2023-03-31T06:18:16;99317.09;;;10.71;100.00
37860;BME280;23698;52.014;5.190;2023-03-31T06:21:03;99305.50;;;10.94;100.00
37860;BME280;23698;52.014;5.190;2023-03-31T06:23:50;99309.75;;;10.60;100.00
37860;BME280;23698;52.014;5.190;2023-03-31T06:26:40;99313.19;;;10.67;100.00
37860;BME280;23698;52.014;5.190;2023-03-31T06:29:27;99302.63;;;11.67;100.00
37860;BME280;23698;52.014;5.190;2023-03-31T06:32:13;99289.75;;;11.27;100.00
37860;BME280;23698;52.014;5.190;2023-03-31T06:35:00;99293.41;;;10.67;100.00
37860;BME280;23698;52.014;5.190;2023-03-31T06:37:46;99303.31;;;10.43;100.00
37860;BME280;23698;52.014;5.190;2023-03-31T06:40:33;99300.75;;;10.29;100.00
37860;BME280;23698;52.014;5.190;2023-03-31T06:43:20;99298.81;;;10.36;100.00
37860;BME280;23698;52.014;5.190;2023-03-31T06:46:07;99302.38;;;11.21;100.00
37860;BME280;23698;52.014;5.190;2023-03-31T06:48:54;99300.75;;;10.29;100.00
37860;BME280;23698;52.014;5.190;2023-03-31T06:51:40;99295.34;;;10.29;100.00
37860;BME280;23698;52.014;5.190;2023-03-31T06:54:26;99300.47;;;10.19;100.00
37860;BME280;23698;52.014;5.190;2023-03-31T06:57:13;99292.69;;;10.41;100.00
37860;BME280;23698;52.014;5.190;2023-03-31T07:00:01;99281.38;;;11.05;100.00
37860;BME280;23698;52.014;5.190;2023-03-31T07:02:48;99269.44;;;10.94;100.00
37860;BME280;23698;52.014;5.190;2023-03-31T07:05:35;99290.22;;;10.39;100.00
37860;BME280;23698;52.014;5.190;2023-03-31T07:08:22;99286.75;;;10.32;100.00
37860;BME280;23698;52.014;5.190;2023-03-31T07:11:10;99288.78;;;11.09;100.00
37860;BME280;23698;52.014;5.190;2023-03-31T07:13:56;99270.31;;;10.64;100.00
37860;BME280;23698;52.014;5.190;2023-03-31T07:16:44;99273.19;;;10.51;100.00
37860;BME280;23698;52.014;5.190;2023-03-31T07:19:30;99275.94;;;10.32;100.00
37860;BME280;23698;52.014;5.190;2023-03-31T07:22:17;99278.72;;;10.26;100.00
37860;BME280;23698;52.014;5.190;2023-03-31T07:25:04;99275.25;;;10.18;100.00
37860;BME280;23698;52.014;5.190;2023-03-31T07:27:50;99280.72;;;10.30;100.00
37860;BME280;23698;52.014;5.190;2023-03-31T07:30:37;99273.59;;;10.36;100.00
37860;BME280;23698;52.014;5.190;2023-03-31T07:33:26;99286.97;;;10.91;100.00
37860;BME280;23698;52.014;5.190;2023-03-31T07:36:13;99262.88;;;11.25;100.00
37860;BME280;23698;52.014;5.190;2023-03-31T07:39:00;99240.44;;;10.94;100.00
37860;BME280;23698;52.014;5.190;2023-03-31T07:41:46;99247.31;;;11.21;100.00
37860;BME280;23698;52.014;5.190;2023-03-31T07:44:33;99244.34;;;11.22;100.00
37860;BME280;23698;52.014;5.190;2023-03-31T07:47:19;99159.31;;;12.21;100.00
37860;BME280;23698;52.014;5.190;2023-03-31T07:50:08;99138.25;;;12.45;100.00
37860;BME280;23698;52.014;5.190;2023-03-31T07:52:55;99154.25;;;12.59;100.00
37860;BME280;23698;52.014;5.190;2023-03-31T07:55:42;99158.94;;;12.97;100.00
37860;BME280;23698;52.014;5.190;2023-03-31T07:58:28;99171.38;;;12.59;100.00
37860;BME280;23698;52.014;5.190;2023-03-31T08:01:15;99167.44;;;12.50;100.00
37860;BME280;23698;52.014;5.190;2023-03-31T08:04:03;99164.25;;;13.26;100.00
37860;BME280;23698;52.014;5.190;2023-03-31T08:06:51;99166.44;;;13.07;100.00
37860;BME280;23698;52.014;5.190;2023-03-31T08:09:37;99165.09;;;12.42;100.00
37860;BME280;23698;52.014;5.190;2023-03-31T08:12:24;99165.03;;;12.88;100.00
37860;BME280;23698;52.014;5.190;2023-03-31T08:15:10;99162.66;;;12.91;100.00
37860;BME280;23698;52.014;5.190;2023-03-31T08:17:56;99154.06;;;13.55;100.00
37860;BME280;23698;52.014;5.190;2023-03-31T08:20:43;99152.16;;;13.78;100.00
37860;BME280;23698;52.014;5.190;2023-03-31T08:23:34;99157.22;;;12.91;100.00
37860;BME280;23698;52.014;5.190;2023-03-31T08:26:21;99147.91;;;12.87;100.00
37860;BME280;23698;52.014;5.190;2023-03-31T08:29:08;99153.19;;;12.60;100.00
37860;BME280;23698;52.014;5.190;2023-03-31T08:31:54;99142.47;;;12.70;100.00
37860;BME280;23698;52.014;5.190;2023-03-31T08:34:41;99141.03;;;13.18;100.00
37860;BME280;23698;52.014;5.190;2023-03-31T08:37:27;99144.53;;;12.97;100.00
37860;BME280;23698;52.014;5.190;2023-03-31T08:40:19;99143.88;;;12.90;100.00
37860;BME280;23698;52.014;5.190;2023-03-31T08:43:12;99142.22;;;12.72;100.00
37860;BME280;23698;52.014;5.190;2023-03-31T08:46:03;99133.16;;;12.66;100.00
37860;BME280;23698;52.014;5.190;2023-03-31T08:48:51;99127.28;;;12.91;100.00
37860;BME280;23698;52.014;5.190;2023-03-31T08:51:41;99122.47;;;12.59;100.00
37860;BME280;23698;52.014;5.190;2023-03-31T08:54:32;99108.88;;;13.54;100.00
37860;BME280;23698;52.014;5.190;2023-03-31T08:57:24;99109.34;;;12.90;100.00
37860;BME280;23698;52.014;5.190;2023-03-31T09:00:14;99105.84;;;13.51;100.00
37860;BME280;23698;52.014;5.190;2023-03-31T09:03:04;99110.38;;;13.67;100.00
37860;BME280;23698;52.014;5.190;2023-03-31T09:05:58;99104.69;;;13.69;100.00
37860;BME280;23698;52.014;5.190;2023-03-31T09:08:46;99110.56;;;13.60;100.00
37860;BME280;23698;52.014;5.190;2023-03-31T09:11:35;99107.22;;;13.53;100.00
37860;BME280;23698;52.014;5.190;2023-03-31T09:14:29;99108.72;;;13.66;100.00
37860;BME280;23698;52.014;5.190;2023-03-31T09:17:21;99102.59;;;13.54;100.00
37860;BME280;23698;52.014;5.190;2023-03-31T09:20:14;99106.09;;;13.49;100.00
37860;BME280;23698;52.014;5.190;2023-03-31T09:23:17;99113.97;;;13.73;100.00
37860;BME280;23698;52.014;5.190;2023-03-31T09:26:20;99097.53;;;14.44;100.00
37860;BME280;23698;52.014;5.190;2023-03-31T09:29:14;99105.41;;;14.68;100.00
37860;BME280;23698;52.014;5.190;2023-03-31T09:32:13;99114.06;;;13.34;100.00
37860;BME280;23698;52.014;5.190;2023-03-31T09:35:05;99115.75;;;13.40;100.00
37860;BME280;23698;52.014;5.190;2023-03-31T09:37:58;99106.78;;;13.22;100.00
37860;BME280;23698;52.014;5.190;2023-03-31T09:40:45;99115.34;;;13.09;100.00
37860;BME280;23698;52.014;5.190;2023-03-31T09:43:32;99112.66;;;13.75;100.00
37860;BME280;23698;52.014;5.190;2023-03-31T09:46:27;99112.72;;;14.08;100.00
37860;BME280;23698;52.014;5.190;2023-03-31T09:49:18;99113.91;;;13.68;100.00
37860;BME280;23698;52.014;5.190;2023-03-31T09:52:11;99105.72;;;13.40;100.00
37860;BME280;23698;52.014;5.190;2023-03-31T09:55:01;99110.44;;;13.94;100.00
37860;BME280;23698;52.014;5.190;2023-03-31T09:57:49;99103.63;;;14.24;100.00
37860;BME280;23698;52.014;5.190;2023-03-31T10:00:39;99102.31;;;14.00;100.00
37860;BME280;23698;52.014;5.190;2023-03-31T10:03:27;99107.06;;;14.74;100.00
37860;BME280;23698;52.014;5.190;2023-03-31T10:06:16;99100.97;;;14.34;100.00
37860;BME280;23698;52.014;5.190;2023-03-31T10:09:03;99103.88;;;13.95;100.00
37860;BME280;23698;52.014;5.190;2023-03-31T10:11:53;99105.16;;;14.15;100.00
37860;BME280;23698;52.014;5.190;2023-03-31T10:14:45;99090.75;;;14.52;100.00
37860;BME280;23698;52.014;5.190;2023-03-31T10:17:34;99094.59;;;14.51;100.00
37860;BME280;23698;52.014;5.190;2023-03-31T10:20:43;99089.47;;;14.97;100.00
37860;BME280;23698;52.014;5.190;2023-03-31T10:23:33;99093.13;;;15.08;100.00
37860;BME280;23698;52.014;5.190;2023-03-31T10:26:21;99080.78;;;15.00;100.00
37860;BME280;23698;52.014;5.190;2023-03-31T10:29:11;99094.84;;;14.82;100.00
37860;BME280;23698;52.014;5.190;2023-03-31T10:32:02;99079.97;;;15.00;100.00
37860;BME280;23698;52.014;5.190;2023-03-31T10:34:50;99095.22;;;13.76;100.00
37860;BME280;23698;52.014;5.190;2023-03-31T10:37:37;99085.69;;;14.01;100.00
37860;BME280;23698;52.014;5.190;2023-03-31T10:40:28;99083.31;;;13.83;100.00
37860;BME280;23698;52.014;5.190;2023-03-31T10:43:17;99078.03;;;13.98;100.00
37860;BME280;23698;52.014;5.190;2023-03-31T10:46:05;99061.56;;;14.15;100.00
37860;BME280;23698;52.014;5.190;2023-03-31T10:48:51;99082.59;;;14.52;100.00
37860;BME280;23698;52.014;5.190;2023-03-31T10:51:47;99071.53;;;13.50;100.00
37860;BME280;23698;52.014;5.190;2023-03-31T10:54:34;99066.63;;;13.30;100.00
37860;BME280;23698;52.014;5.190;2023-03-31T10:57:30;99068.84;;;13.11;100.00
37860;BME280;23698;52.014;5.190;2023-03-31T11:00:26;99053.81;;;13.08;100.00
37860;BME280;23698;52.014;5.190;2023-03-31T11:06:47;99047.53;;;13.25;100.00
37860;BME280;23698;52.014;5.190;2023-03-31T11:09:45;99053.47;;;13.21;100.00
37860;BME280;23698;52.014;5.190;2023-03-31T11:12:43;99044.41;;;13.16;100.00
37860;BME280;23698;52.014;5.190;2023-03-31T11:15:39;99046.13;;;14.26;100.00
37860;BME280;23698;52.014;5.190;2023-03-31T11:18:37;99044.75;;;13.41;100.00
37860;BME280;23698;52.014;5.190;2023-03-31T11:21:34;99037.16;;;14.30;100.00
37860;BME280;23698;52.014;5.190;2023-03-31T11:24:35;99036.69;;;13.52;100.00
37860;BME280;23698;52.014;5.190;2023-03-31T11:27:33;99041.56;;;13.50;100.00
37860;BME280;23698;52.014;5.190;2023-03-31T11:30:27;99049.03;;;14.14;100.00
37860;BME280;23698;52.014;5.190;2023-03-31T11:33:29;99048.88;;;13.71;100.00
37860;BME280;23698;52.014;5.190;2023-03-31T11:36:48;99033.34;;;13.00;100.00
37860;BME280;23698;52.014;5.190;2023-03-31T11:39:46;99037.50;;;13.52;100.00
37860;BME280;23698;52.014;5.190;2023-03-31T11:42:38;99032.19;;;13.63;100.00
37860;BME280;23698;52.014;5.190;2023-03-31T11:45:33;99037.00;;;13.11;100.00
37860;BME280;23698;52.014;5.190;2023-03-31T11:48:29;99029.78;;;12.61;100.00
37860;BME280;23698;52.014;5.190;2023-03-31T11:51:23;99031.25;;;13.30;100.00
37860;BME280;23698;52.014;5.190;2023-03-31T11:54:16;99018.66;;;12.62;100.00
37860;BME280;23698;52.014;5.190;2023-03-31T11:57:12;99021.91;;;12.25;100.00
37860;BME280;23698;52.014;5.190;2023-03-31T12:00:05;99009.56;;;12.18;100.00
37860;BME280;23698;52.014;5.190;2023-03-31T12:03:03;99000.19;;;12.08;100.00
37860;BME280;23698;52.014;5.190;2023-03-31T12:05:57;99007.00;;;12.28;100.00
37860;BME280;23698;52.014;5.190;2023-03-31T12:08:52;99002.25;;;12.18;100.00
37860;BME280;23698;52.014;5.190;2023-03-31T12:11:44;98998.41;;;13.14;100.00
37860;BME280;23698;52.014;5.190;2023-03-31T12:14:35;98995.25;;;13.00;100.00
37860;BME280;23698;52.014;5.190;2023-03-31T12:17:26;98996.03;;;12.57;100.00
37860;BME280;23698;52.014;5.190;2023-03-31T12:20:24;98986.44;;;12.32;100.00
37860;BME280;23698;52.014;5.190;2023-03-31T12:23:16;98987.00;;;12.51;100.00
37860;BME280;23698;52.014;5.190;2023-03-31T12:26:07;98982.88;;;12.32;100.00
37860;BME280;23698;52.014;5.190;2023-03-31T12:29:03;98984.16;;;12.63;100.00
37860;BME280;23698;52.014;5.190;2023-03-31T12:31:52;98973.47;;;12.78;100.00
37860;BME280;23698;52.014;5.190;2023-03-31T12:34:43;98965.88;;;12.58;100.00
37860;BME280;23698;52.014;5.190;2023-03-31T12:37:57;98979.00;;;12.44;100.00
37860;BME280;23698;52.014;5.190;2023-03-31T12:40:57;98965.78;;;12.92;100.00
37860;BME280;23698;52.014;5.190;2023-03-31T12:44:21;98961.28;;;13.03;100.00
37860;BME280;23698;52.014;5.190;2023-03-31T12:47:23;98950.22;;;13.91;100.00
37860;BME280;23698;52.014;5.190;2023-03-31T12:50:26;98950.53;;;13.95;100.00
37860;BME280;23698;52.014;5.190;2023-03-31T12:53:24;98951.88;;;13.97;100.00
37860;BME280;23698;52.014;5.190;2023-03-31T12:56:14;98941.38;;;13.74;100.00
37860;BME280;23698;52.014;5.190;2023-03-31T12:59:17;98940.28;;;12.76;100.00
37860;BME280;23698;52.014;5.190;2023-03-31T13:02:24;98935.53;;;12.44;100.00
37860;BME280;23698;52.014;5.190;2023-03-31T13:05:39;98924.19;;;12.31;100.00
37860;BME280;23698;52.014;5.190;2023-03-31T13:08:52;98931.91;;;12.39;100.00
37860;BME280;23698;52.014;5.190;2023-03-31T13:11:40;98925.47;;;12.89;100.00
37860;BME280;23698;52.014;5.190;2023-03-31T13:14:31;98924.09;;;12.87;100.00
37860;BME280;23698;52.014;5.190;2023-03-31T13:17:26;98921.56;;;13.02;100.00
37860;BME280;23698;52.014;5.190;2023-03-31T13:20:21;98918.03;;;12.79;100.00
37860;BME280;23698;52.014;5.190;2023-03-31T13:23:18;98925.28;;;12.74;100.00
37860;BME280;23698;52.014;5.190;2023-03-31T13:26:38;98915.16;;;13.13;100.00
37860;BME280;23698;52.014;5.190;2023-03-31T13:29:39;98916.31;;;13.45;100.00
37860;BME280;23698;52.014;5.190;2023-03-31T13:32:26;98912.34;;;13.57;100.00
37860;BME280;23698;52.014;5.190;2023-03-31T13:35:26;98911.16;;;13.75;100.00
37860;BME280;23698;52.014;5.190;2023-03-31T13:38:22;98908.44;;;14.18;100.00
37860;BME280;23698;52.014;5.190;2023-03-31T13:41:24;98910.84;;;13.72;100.00
37860;BME280;23698;52.014;5.190;2023-03-31T13:44:32;98906.47;;;14.08;100.00
37860;BME280;23698;52.014;5.190;2023-03-31T13:47:47;98903.88;;;13.86;100.00
37860;BME280;23698;52.014;5.190;2023-03-31T13:50:48;98912.53;;;13.46;100.00
37860;BME280;23698;52.014;5.190;2023-03-31T13:57:27;98906.03;;;13.25;100.00
37860;BME280;23698;52.014;5.190;2023-03-31T14:00:28;98905.66;;;13.16;100.00
37860;BME280;23698;52.014;5.190;2023-03-31T14:03:26;98899.63;;;12.87;100.00
37860;BME280;23698;52.014;5.190;2023-03-31T14:06:23;98904.00;;;12.65;100.00
37860;BME280;23698;52.014;5.190;2023-03-31T14:09:14;98902.84;;;12.61;100.00
37860;BME280;23698;52.014;5.190;2023-03-31T14:12:20;98891.28;;;12.71;100.00
37860;BME280;23698;52.014;5.190;2023-03-31T14:15:17;98899.00;;;12.57;100.00
37860;BME280;23698;52.014;5.190;2023-03-31T14:18:04;98886.53;;;13.33;100.00
37860;BME280;23698;52.014;5.190;2023-03-31T14:21:01;98880.97;;;12.95;100.00
37860;BME280;23698;52.014;5.190;2023-03-31T14:23:58;98896.59;;;13.10;100.00
37860;BME280;23698;52.014;5.190;2023-03-31T14:26:55;98878.53;;;12.50;100.00
37860;BME280;23698;52.014;5.190;2023-03-31T14:29:51;98904.47;;;12.40;100.00
37860;BME280;23698;52.014;5.190;2023-03-31T14:32:46;98895.88;;;12.93;100.00
37860;BME280;23698;52.014;5.190;2023-03-31T14:35:39;98897.34;;;12.78;100.00
37860;BME280;23698;52.014;5.190;2023-03-31T14:38:29;98885.16;;;13.08;100.00
37860;BME280;23698;52.014;5.190;2023-03-31T14:41:18;98884.56;;;13.01;100.00
37860;BME280;23698;52.014;5.190;2023-03-31T14:44:13;98890.06;;;13.06;100.00
37860;BME280;23698;52.014;5.190;2023-03-31T14:47:23;98879.03;;;13.45;100.00
37860;BME280;23698;52.014;5.190;2023-03-31T14:50:13;98881.38;;;13.09;100.00
37860;BME280;23698;52.014;5.190;2023-03-31T14:53:01;98880.16;;;12.95;100.00
37860;BME280;23698;52.014;5.190;2023-03-31T14:55:49;98871.00;;;12.57;100.00
37860;BME280;23698;52.014;5.190;2023-03-31T14:58:46;98878.19;;;12.90;100.00
37860;BME280;23698;52.014;5.190;2023-03-31T15:01:35;98884.03;;;12.55;100.00
37860;BME280;23698;52.014;5.190;2023-03-31T15:04:39;98872.97;;;13.11;100.00
37860;BME280;23698;52.014;5.190;2023-03-31T15:07:29;98878.41;;;12.39;100.00
37860;BME280;23698;52.014;5.190;2023-03-31T15:10:18;98874.72;;;12.73;100.00